createdAt,value
2022-09-20T00:00:34.902Z,71.88
2022-09-20T00:03:44.691Z,71.93
2022-09-20T00:06:46.478Z,72.01
2022-09-20T00:09:48.188Z,72.18
2022-09-20T00:12:50.128Z,71.81
2022-09-20T00:15:51.834Z,71.60
2022-09-20T00:18:55.843Z,71.79
2022-09-20T00:21:57.565Z,71.93
2022-09-20T00:24:59.246Z,71.83
2022-09-20T00:28:01.263Z,71.77
2022-09-20T00:31:02.954Z,71.82
2022-09-20T00:34:23.190Z,71.89
2022-09-20T00:37:25.010Z,71.92
2022-09-20T00:40:30.406Z,72.25
2022-09-20T00:43:43.945Z,72.83
2022-09-20T00:46:46.066Z,72.87
2022-09-20T00:49:49.809Z,73.39
2022-09-20T00:53:07.859Z,74.00
2022-09-20T00:56:15.963Z,73.91
2022-09-20T00:59:37.530Z,74.61
2022-09-20T01:02:44.468Z,74.95
2022-09-20T01:05:46.263Z,75.22
2022-09-20T01:08:51.683Z,75.67
2022-09-20T01:11:56.161Z,76.54
2022-09-20T01:15:00.630Z,77.09
2022-09-20T01:18:03.480Z,76.76
2022-09-20T01:21:07.327Z,76.93
2022-09-20T01:24:25.034Z,77.13
2022-09-20T01:27:46.774Z,76.90
2022-09-20T01:30:52.184Z,76.16
2022-09-20T01:34:06.941Z,75.52
2022-09-20T01:37:31.779Z,76.95
2022-09-20T01:40:46.688Z,76.84
2022-09-20T01:43:55.249Z,77.11
2022-09-20T01:47:05.855Z,77.16
2022-09-20T01:50:22.768Z,77.37
2022-09-20T01:53:48.412Z,77.60
2022-09-20T01:57:08.466Z,77.31
2022-09-20T02:00:49.282Z,77.43
2022-09-20T02:04:17.304Z,76.72
2022-09-20T02:07:38.258Z,76.61
2022-09-20T02:11:14.164Z,77.04
2022-09-20T02:14:44.093Z,76.79
2022-09-20T02:18:00.743Z,77.13
2022-09-20T02:21:35.850Z,76.95
2022-09-20T02:24:56.195Z,76.89
2022-09-20T02:28:31.782Z,76.79
2022-09-20T02:31:58.374Z,76.66
2022-09-20T02:35:10.777Z,76.53
2022-09-20T02:38:18.586Z,76.62
2022-09-20T02:41:54.289Z,77.50
2022-09-20T02:45:34.116Z,77.42
2022-09-20T02:48:59.662Z,77.23
2022-09-20T02:52:16.830Z,77.61
2022-09-20T02:55:56.163Z,78.23
2022-09-20T02:59:14.040Z,77.87
2022-09-20T03:02:34.078Z,77.17
2022-09-20T03:05:47.545Z,76.93
2022-09-20T03:09:01.652Z,76.07
2022-09-20T03:12:23.041Z,75.13
2022-09-20T03:15:54.836Z,74.44
2022-09-20T03:19:44.566Z,74.09
2022-09-20T03:23:10.813Z,75.03
2022-09-20T03:26:48.719Z,76.64
2022-09-20T03:30:16.193Z,77.43
2022-09-20T03:33:37.416Z,78.24
2022-09-20T03:36:53.080Z,78.14
2022-09-20T03:40:32.506Z,78.88
2022-09-20T03:43:49.335Z,79.41
2022-09-20T03:47:03.801Z,80.08
2022-09-20T03:50:31.172Z,79.99
2022-09-20T03:53:39.995Z,79.64
2022-09-20T03:57:00.363Z,80.40
2022-09-20T04:00:35.460Z,80.78
2022-09-20T04:04:14.677Z,80.97
2022-09-20T04:07:39.061Z,81.08
2022-09-20T04:10:50.561Z,80.03
2022-09-20T04:14:04.458Z,78.37
2022-09-20T04:17:25.493Z,77.63
2022-09-20T04:20:46.218Z,77.06
2022-09-20T04:24:00.923Z,75.95
2022-09-20T04:27:11.833Z,75.24
2022-09-20T04:30:24.219Z,74.83
2022-09-20T04:33:35.075Z,75.00
2022-09-20T04:36:56.199Z,75.99
2022-09-20T04:40:09.903Z,76.65
2022-09-20T04:43:33.523Z,77.29
2022-09-20T04:46:41.319Z,78.02
2022-09-20T04:50:22.197Z,77.96
2022-09-20T04:53:57.405Z,78.10
2022-09-20T04:57:11.449Z,77.70
2022-09-20T05:00:21.465Z,78.66
2022-09-20T05:03:46.005Z,78.83
2022-09-20T05:07:26.424Z,78.24
2022-09-20T05:10:42.338Z,78.12
2022-09-20T05:14:03.540Z,77.88
2022-09-20T05:17:21.566Z,77.87
2022-09-20T05:20:26.352Z,78.02
2022-09-20T05:23:40.872Z,78.24
2022-09-20T05:27:04.410Z,77.82
2022-09-20T05:30:24.397Z,77.05
2022-09-20T05:33:53.786Z,77.10
2022-09-20T05:37:17.451Z,77.01
2022-09-20T05:40:39.503Z,76.69
2022-09-20T05:44:25.251Z,78.04
2022-09-20T05:47:44.946Z,77.84
2022-09-20T05:51:01.891Z,78.31
2022-09-20T05:54:27.605Z,78.38
2022-09-20T05:58:01.671Z,77.78
2022-09-20T06:01:21.539Z,78.04
2022-09-20T06:04:37.079Z,77.20
2022-09-20T06:08:03.721Z,77.34
2022-09-20T06:12:02.914Z,77.23
2022-09-20T06:15:15.220Z,77.12
2022-09-20T06:18:26.190Z,78.23
2022-09-20T06:21:50.769Z,78.27
2022-09-20T06:25:08.462Z,77.90
2022-09-20T06:28:21.466Z,77.98
2022-09-20T06:31:23.223Z,77.62
2022-09-20T06:34:27.004Z,76.82
2022-09-20T06:37:54.102Z,76.84
2022-09-20T06:41:14.760Z,75.55
2022-09-20T06:44:16.560Z,75.45
2022-09-20T06:47:18.770Z,75.59
2022-09-20T06:50:20.528Z,75.61
2022-09-20T06:53:32.555Z,74.75
2022-09-20T06:56:36.918Z,74.30
2022-09-20T06:59:38.754Z,73.77
2022-09-20T07:02:40.659Z,74.29
2022-09-20T07:05:42.429Z,73.18
2022-09-20T07:08:44.179Z,72.85
2022-09-20T07:11:46.223Z,71.76
2022-09-20T07:14:48.006Z,71.23
2022-09-20T07:17:51.094Z,71.69
2022-09-20T07:20:52.859Z,72.32
2022-09-20T07:23:54.756Z,73.86
2022-09-20T07:27:01.392Z,74.61
2022-09-20T07:30:03.414Z,74.06
2022-09-20T07:33:05.092Z,73.28
2022-09-20T07:36:07.074Z,72.93
2022-09-20T07:39:09.550Z,72.87
2022-09-20T07:42:12.070Z,71.74
2022-09-20T07:45:13.995Z,71.27
2022-09-20T07:48:16.195Z,70.41
2022-09-20T07:51:20.896Z,70.03
2022-09-20T07:54:22.711Z,69.14
2022-09-20T07:57:24.565Z,67.85
2022-09-20T08:00:26.666Z,68.46
2022-09-20T08:03:33.080Z,67.99
2022-09-20T08:06:39.556Z,66.56
2022-09-20T08:09:41.632Z,66.42
2022-09-20T08:16:08.174Z,63.99
2022-09-20T08:19:15.917Z,63.60
2022-09-20T08:22:17.743Z,62.30
2022-09-20T08:25:19.431Z,62.57
2022-09-20T08:28:21.197Z,62.40
2022-09-20T08:31:26.022Z,60.26
2022-09-20T08:34:28.049Z,59.07
2022-09-20T08:37:30.320Z,57.57
2022-09-20T08:40:32.380Z,57.10
2022-09-20T08:43:48.792Z,55.85
2022-09-20T08:47:01.706Z,55.12
2022-09-20T08:50:11.543Z,55.61
2022-09-20T08:53:20.922Z,54.80
2022-09-20T08:56:28.036Z,53.91
2022-09-20T08:59:31.428Z,54.22
2022-09-20T09:02:34.695Z,53.25
2022-09-20T09:05:40.907Z,52.42
2022-09-20T09:08:49.493Z,51.48
2022-09-20T09:11:53.055Z,52.73
2022-09-20T09:14:59.649Z,52.45
2022-09-20T09:18:01.545Z,51.09
2022-09-20T09:21:07.718Z,49.71
2022-09-20T09:24:20.508Z,50.37
2022-09-20T09:27:22.232Z,50.00
2022-09-20T09:30:26.480Z,49.99
2022-09-20T09:33:30.075Z,48.63
2022-09-20T09:36:32.910Z,47.48
2022-09-20T09:39:38.568Z,46.81
2022-09-20T09:42:56.244Z,45.51
2022-09-20T09:46:25.373Z,47.28
2022-09-20T09:49:36.031Z,47.73
2022-09-20T09:52:38.046Z,48.10
2022-09-20T09:55:52.725Z,48.02
2022-09-20T09:59:13.103Z,46.63
2022-09-20T10:02:36.178Z,45.87
2022-09-20T10:06:08.791Z,44.19
2022-09-20T10:09:30.738Z,41.92
2022-09-20T10:12:50.401Z,42.45
2022-09-20T10:16:07.645Z,42.50
2022-09-20T10:19:17.487Z,42.84
2022-09-20T10:22:29.113Z,41.84
2022-09-20T10:25:33.869Z,40.99
2022-09-20T10:28:54.152Z,41.18
2022-09-20T10:33:00.940Z,41.75
2022-09-20T10:36:25.413Z,41.45
2022-09-20T10:39:41.192Z,41.08
2022-09-20T10:43:09.473Z,43.04
2022-09-20T10:46:40.618Z,55.37
2022-09-20T10:50:07.970Z,63.98
2022-09-20T10:53:28.811Z,66.46
2022-09-20T10:56:37.542Z,64.33
2022-09-20T10:59:47.271Z,63.10
2022-09-20T11:03:16.484Z,61.02
2022-09-20T11:06:21.408Z,54.99
2022-09-20T11:09:29.565Z,54.63
2022-09-20T11:12:52.886Z,51.76
2022-09-20T11:16:02.989Z,50.37
2022-09-20T11:19:49.819Z,49.86
2022-09-20T11:23:00.033Z,49.81
2022-09-20T11:26:12.924Z,49.70
2022-09-20T11:29:26.295Z,50.81
2022-09-20T11:33:11.369Z,51.69
2022-09-20T11:36:24.817Z,59.18
2022-09-20T11:39:50.649Z,81.48
2022-09-20T11:42:53.386Z,84.82
2022-09-20T11:46:00.838Z,85.08
2022-09-20T11:49:13.575Z,86.88
2022-09-20T11:52:37.187Z,89.97
2022-09-20T11:55:59.062Z,88.65
2022-09-20T11:59:03.910Z,88.75
2022-09-20T12:02:35.586Z,89.07
2022-09-20T12:05:42.334Z,90.19
2022-09-20T12:08:50.615Z,90.79
2022-09-20T12:11:53.056Z,89.46
2022-09-20T12:15:00.323Z,91.09
2022-09-20T12:18:27.053Z,88.53
2022-09-20T12:21:29.043Z,86.01
2022-09-20T12:24:36.771Z,81.79
2022-09-20T12:27:38.412Z,77.37
2022-09-20T12:30:40.119Z,76.76
2022-09-20T12:34:02.143Z,70.49
2022-09-20T12:37:05.121Z,71.17
2022-09-20T12:40:16.046Z,70.73
2022-09-20T12:43:21.645Z,69.24
2022-09-20T12:46:32.767Z,69.28
2022-09-20T12:50:00.735Z,67.54
2022-09-20T12:53:05.443Z,56.94
2022-09-20T12:56:07.925Z,57.83
2022-09-20T12:59:24.272Z,61.43
2022-09-20T13:03:10.211Z,59.32
2022-09-20T13:06:16.394Z,58.45
2022-09-20T13:09:19.116Z,59.80
2022-09-20T13:12:21.270Z,60.52
2022-09-20T13:15:23.337Z,60.49
2022-09-20T13:18:27.927Z,62.67
2022-09-20T13:21:31.110Z,62.89
2022-09-20T13:24:42.094Z,64.44
2022-09-20T13:28:06.679Z,67.13
2022-09-20T13:31:20.393Z,68.42
2022-09-20T13:34:24.429Z,73.92
2022-09-20T13:37:26.198Z,78.42
2022-09-20T13:40:43.201Z,79.88
2022-09-20T13:43:49.963Z,80.63
2022-09-20T13:46:51.722Z,82.26
2022-09-20T13:49:59.878Z,77.35
2022-09-20T13:53:27.892Z,76.59
2022-09-20T13:56:35.748Z,73.50
2022-09-20T13:59:44.954Z,74.41
2022-09-20T14:02:49.375Z,72.00
2022-09-20T14:05:59.342Z,66.29
2022-09-20T14:09:08.401Z,66.01
2022-09-20T14:12:14.069Z,66.97
2022-09-20T14:15:15.956Z,68.78
2022-09-20T14:18:20.102Z,69.60
2022-09-20T14:21:25.513Z,69.71
2022-09-20T14:24:35.480Z,69.59
2022-09-20T14:27:37.279Z,67.41
2022-09-20T14:30:38.950Z,66.05
2022-09-20T14:33:54.975Z,65.29
2022-09-20T14:37:07.065Z,63.65
2022-09-20T14:40:17.650Z,62.82
2022-09-20T14:43:25.987Z,64.04
2022-09-20T14:46:38.918Z,63.55
2022-09-20T14:49:44.369Z,64.06
2022-09-20T14:52:46.194Z,63.79
2022-09-20T14:56:11.719Z,63.79
2022-09-20T14:59:28.572Z,62.78
2022-09-20T15:02:30.235Z,63.03
2022-09-20T15:05:32.305Z,63.41
2022-09-20T15:08:35.455Z,63.96
2022-09-20T15:11:37.194Z,63.04
2022-09-20T15:14:40.872Z,62.11
2022-09-20T15:17:43.030Z,61.71
2022-09-20T15:20:44.732Z,60.81
2022-09-20T15:23:46.484Z,61.20
2022-09-20T15:26:48.786Z,60.72
2022-09-20T15:29:50.618Z,59.65
2022-09-20T15:32:52.715Z,60.11
2022-09-20T15:35:54.477Z,58.67
2022-09-20T15:38:56.456Z,58.71
2022-09-20T15:41:58.201Z,59.01
2022-09-20T15:44:59.902Z,59.55
2022-09-20T15:48:03.089Z,59.63
2022-09-20T15:51:07.479Z,58.83
2022-09-20T15:54:15.012Z,59.46
2022-09-20T15:57:17.645Z,59.65
2022-09-20T16:00:19.863Z,58.81
2022-09-20T16:03:28.895Z,60.17
2022-09-20T16:06:32.074Z,60.76
2022-09-20T16:09:35.828Z,60.98
2022-09-20T16:12:37.676Z,61.25
2022-09-20T16:15:39.455Z,61.67
2022-09-20T16:19:00.172Z,60.75
2022-09-20T16:22:01.958Z,61.10
2022-09-20T16:25:05.993Z,62.16
2022-09-20T16:28:07.714Z,70.40
2022-09-20T16:31:32.904Z,78.65
2022-09-20T16:34:36.695Z,82.84
2022-09-20T16:37:39.394Z,85.69
2022-09-20T16:40:41.373Z,86.80
2022-09-20T16:43:43.076Z,91.42
2022-09-20T16:46:47.540Z,94.04
2022-09-20T16:49:53.640Z,93.87
2022-09-20T16:52:55.853Z,95.20
2022-09-20T16:55:57.551Z,97.65
2022-09-20T16:59:01.114Z,100.00
2022-09-20T17:02:02.886Z,100.00
2022-09-20T17:05:05.384Z,100.00
2022-09-20T17:08:07.121Z,100.00
2022-09-20T17:11:11.539Z,100.00
2022-09-20T17:14:15.003Z,100.00
2022-09-20T17:17:17.240Z,100.00
2022-09-20T17:20:18.983Z,99.43
2022-09-20T17:23:21.169Z,99.17
2022-09-20T17:26:24.646Z,98.41
2022-09-20T17:29:27.626Z,100.00
2022-09-20T17:32:29.406Z,100.00
2022-09-20T17:35:31.387Z,100.00
2022-09-20T17:38:34.670Z,100.00
2022-09-20T17:41:37.413Z,100.00
2022-09-20T17:44:39.166Z,100.00
2022-09-20T17:47:42.147Z,100.00
2022-09-20T17:50:54.315Z,100.00
2022-09-20T17:53:56.416Z,100.00
2022-09-20T17:56:58.132Z,100.00
2022-09-20T17:59:59.844Z,100.00
2022-09-20T18:03:04.756Z,100.00
2022-09-20T18:06:23.137Z,100.00
2022-09-20T18:09:27.139Z,100.00
2022-09-20T18:12:29.627Z,100.00
2022-09-20T18:15:32.135Z,100.00
2022-09-20T18:18:33.904Z,100.00
2022-09-20T18:21:37.498Z,100.00
2022-09-20T18:24:39.399Z,100.00
2022-09-20T18:27:42.161Z,100.00
2022-09-20T18:30:46.285Z,100.00
2022-09-20T18:33:48.030Z,100.00
2022-09-20T18:36:55.030Z,100.00
2022-09-20T18:39:56.713Z,100.00
2022-09-20T18:43:04.519Z,100.00
2022-09-20T18:46:06.660Z,100.00
2022-09-20T18:49:09.622Z,100.00
2022-09-20T18:52:13.098Z,100.00
2022-09-20T18:55:14.948Z,100.00
2022-09-20T18:58:20.760Z,100.00
2022-09-20T19:01:28.547Z,100.00
2022-09-20T19:04:39.068Z,100.00
2022-09-20T19:07:45.807Z,100.00
2022-09-20T19:11:01.234Z,100.00
2022-09-20T19:14:22.022Z,100.00
2022-09-20T19:17:40.880Z,100.00
2022-09-20T19:20:54.188Z,100.00
2022-09-20T19:24:33.344Z,100.00
2022-09-20T19:27:35.396Z,100.00
2022-09-20T19:30:39.479Z,100.00
2022-09-20T19:33:41.472Z,100.00
2022-09-20T19:36:49.143Z,100.00
2022-09-20T19:40:15.342Z,100.00
2022-09-20T19:43:47.783Z,100.00
2022-09-20T19:47:24.901Z,100.00
2022-09-20T19:50:36.180Z,100.00
2022-09-20T19:53:39.294Z,100.00
2022-09-20T19:56:44.084Z,98.38
2022-09-20T19:59:46.428Z,98.23
2022-09-20T20:02:49.088Z,96.76
2022-09-20T20:06:08.310Z,96.33
2022-09-20T20:09:23.387Z,95.22
2022-09-20T20:12:34.139Z,94.40
2022-09-20T20:15:50.606Z,94.46
2022-09-20T20:19:21.114Z,93.97
2022-09-20T20:23:08.657Z,93.84
2022-09-20T20:26:19.434Z,93.28
2022-09-20T20:29:21.169Z,93.93
2022-09-20T20:32:23.040Z,93.83
2022-09-20T20:35:25.849Z,94.28
2022-09-20T20:38:28.887Z,93.84
2022-09-20T20:41:31.919Z,94.10
2022-09-20T20:44:37.785Z,93.70
2022-09-20T20:47:44.092Z,93.12
2022-09-20T20:50:45.839Z,93.54
2022-09-20T20:53:52.926Z,93.32
2022-09-20T20:56:54.673Z,93.40
2022-09-20T20:59:56.400Z,92.84
2022-09-20T21:02:58.708Z,92.47
2022-09-20T21:06:00.446Z,92.98
2022-09-20T21:09:04.356Z,92.73
2022-09-20T21:12:06.391Z,92.38
2022-09-20T21:15:08.480Z,92.79
2022-09-20T21:18:10.427Z,92.67
2022-09-20T21:21:33.539Z,92.55
2022-09-20T21:24:35.191Z,92.90
2022-09-20T21:27:37.124Z,93.42
2022-09-20T21:30:38.828Z,93.31
2022-09-20T21:33:42.504Z,93.04
2022-09-20T21:36:44.958Z,93.26
2022-09-20T21:39:46.962Z,94.12
2022-09-20T21:42:48.640Z,94.25
2022-09-20T21:45:50.647Z,94.43
2022-09-20T21:48:52.399Z,95.53
2022-09-20T21:51:54.231Z,95.00
2022-09-20T21:54:55.972Z,95.75
2022-09-20T21:57:57.868Z,96.50
2022-09-20T22:01:26.821Z,96.80
2022-09-20T22:04:29.192Z,97.09
2022-09-20T22:07:30.860Z,97.71
2022-09-20T22:10:32.758Z,97.98
2022-09-20T22:13:35.357Z,97.79
2022-09-20T22:16:38.880Z,98.30
2022-09-20T22:19:40.564Z,98.25
2022-09-20T22:22:42.352Z,99.96
2022-09-20T22:25:44.124Z,100.00
2022-09-20T22:28:45.821Z,100.00
2022-09-20T22:31:50.121Z,100.00
2022-09-20T22:34:51.848Z,100.00
2022-09-20T22:37:53.789Z,100.00
2022-09-20T22:40:57.354Z,100.00
2022-09-20T22:43:59.305Z,100.00
2022-09-20T22:47:00.964Z,100.00
2022-09-20T22:50:02.774Z,100.00
2022-09-20T22:53:04.490Z,100.00
2022-09-20T22:56:11.855Z,100.00
2022-09-20T22:59:14.843Z,100.00
2022-09-20T23:02:16.537Z,100.00
2022-09-20T23:05:18.225Z,100.00
2022-09-20T23:08:22.439Z,100.00
2022-09-20T23:11:24.940Z,100.00
2022-09-20T23:14:26.872Z,100.00
2022-09-20T23:17:28.529Z,100.00
2022-09-20T23:20:30.320Z,100.00
2022-09-20T23:23:32.165Z,100.00
2022-09-20T23:26:36.763Z,100.00
2022-09-20T23:29:38.508Z,100.00
2022-09-20T23:32:40.781Z,100.00
2022-09-20T23:35:46.463Z,100.00
2022-09-20T23:38:48.904Z,100.00
2022-09-20T23:41:51.451Z,100.00
2022-09-20T23:44:53.280Z,100.00
2022-09-20T23:47:54.961Z,100.00
2022-09-20T23:50:56.695Z,100.00
2022-09-20T23:53:58.712Z,100.00
2022-09-20T23:57:00.455Z,100.00
